NFTL/HPA METAR and TAF weather

Enter ICAO airport designator
Station Type Date Time Source
NFTL METAR 2021/05/15 01:00 UTC NOAA

NFTL 150100Z 08007KT 9999 SCT017TCU 28/22 Q1014


Station Type Date Time Source
NFTL Decoded METAR 2021/05/15 01:00 UTC NOAA

Haapai, Tonga (NFTL) 19-48S 174-21W 3M
May 14, 2021 - 09:00 PM EDT / 2021.05.15 0100 UTC
Wind: from the E (080 degrees) at 8 MPH (7 KT):0
Visibility: greater than 7 mile(s):0
Sky conditions: partly cloudy
Weather: Towering cumulus clouds observed
Temperature: 82 F (28 C)
Dew Point: 71 F (22 C)
Relative Humidity: 69%
Pressure (altimeter): 29.94 in. Hg (1014 hPa)
ob: NFTL 150100Z 08007KT 9999 SCT017TCU 28/22 Q1014
cycle: 1

Station Type Date Time Source
NFTL TAF 2018/02/21 17:19 UTC NOAA

TAF NFTL 211605Z 2117/2208 12010KT 9999 SCT018

Example: see airport list